createdAt,value
2018-09-09T00:00:48.398Z,89.08
2018-09-09T00:03:17.067Z,88.78
2018-09-09T00:05:45.478Z,88.99
2018-09-09T00:08:13.987Z,89.49
2018-09-09T00:10:42.435Z,88.52
2018-09-09T00:13:10.910Z,89.21
2018-09-09T00:15:39.331Z,88.94
2018-09-09T00:18:07.731Z,89.25
2018-09-09T00:20:36.142Z,88.64
2018-09-09T00:23:04.769Z,89.74
2018-09-09T00:25:33.306Z,88.92
2018-09-09T00:28:01.762Z,88.95
2018-09-09T00:30:30.446Z,89.14
2018-09-09T00:32:58.862Z,87.99
2018-09-09T00:35:27.388Z,89.11
2018-09-09T00:37:55.792Z,89.14
2018-09-09T00:40:24.227Z,88.94
2018-09-09T00:42:52.854Z,89.38
2018-09-09T00:45:21.637Z,89.74
2018-09-09T00:47:50.121Z,89.95
2018-09-09T00:50:23.771Z,89.62
2018-09-09T00:52:57.596Z,90.30
2018-09-09T00:55:26.247Z,90.31
2018-09-09T00:57:54.785Z,91.04
2018-09-09T01:00:28.759Z,90.96
2018-09-09T01:02:57.164Z,90.96
2018-09-09T01:05:25.658Z,90.96
2018-09-09T01:07:54.189Z,91.27
2018-09-09T01:10:22.659Z,91.18
2018-09-09T01:12:51.151Z,90.96
2018-09-09T01:15:19.671Z,90.77
2018-09-09T01:17:48.193Z,90.48
2018-09-09T01:20:16.879Z,91.47
2018-09-09T01:22:45.563Z,91.31
2018-09-09T01:25:14.059Z,90.94
2018-09-09T01:27:42.458Z,91.24
2018-09-09T01:30:10.939Z,91.45
2018-09-09T01:32:39.439Z,91.23
2018-09-09T01:35:07.914Z,92.12
2018-09-09T01:37:36.430Z,92.27
2018-09-09T01:40:04.915Z,92.77
2018-09-09T01:42:33.322Z,92.07
2018-09-09T01:45:01.859Z,91.45
2018-09-09T01:47:30.400Z,90.89
2018-09-09T01:49:58.870Z,91.21
2018-09-09T01:52:27.635Z,92.49
2018-09-09T01:54:56.070Z,92.28
2018-09-09T01:57:24.820Z,91.92
2018-09-09T01:59:53.290Z,92.32
2018-09-09T02:02:21.799Z,91.08
2018-09-09T02:04:50.291Z,91.78
2018-09-09T02:07:18.781Z,91.71
2018-09-09T02:09:47.194Z,91.62
2018-09-09T02:12:15.639Z,92.53
2018-09-09T02:14:44.315Z,91.36
2018-09-09T02:17:12.858Z,90.19
2018-09-09T02:19:41.236Z,91.17
2018-09-09T02:22:09.933Z,90.96
2018-09-09T02:24:38.382Z,91.43
2018-09-09T02:27:06.803Z,91.44
2018-09-09T02:29:35.574Z,93.23
2018-09-09T02:32:04.007Z,93.37
2018-09-09T02:34:32.463Z,92.92
2018-09-09T02:37:01.148Z,92.46
2018-09-09T02:39:29.583Z,92.64
2018-09-09T02:41:58.056Z,92.37
2018-09-09T02:44:26.635Z,91.78
2018-09-09T02:46:55.039Z,91.84
2018-09-09T02:49:23.443Z,90.84
2018-09-09T02:51:52.227Z,89.95
2018-09-09T02:54:20.679Z,90.24
2018-09-09T02:56:49.106Z,89.64
2018-09-09T02:59:17.540Z,90.26
2018-09-09T03:01:45.942Z,90.70
2018-09-09T03:04:14.414Z,90.96
2018-09-09T03:06:43.007Z,90.65
2018-09-09T03:09:11.495Z,91.12
2018-09-09T03:11:39.983Z,91.59
2018-09-09T03:14:08.667Z,91.48
2018-09-09T03:16:37.159Z,91.53
2018-09-09T03:19:05.712Z,92.02
2018-09-09T03:21:34.338Z,90.70
2018-09-09T03:24:02.782Z,91.36
2018-09-09T03:26:31.286Z,92.01
2018-09-09T03:28:59.915Z,91.39
2018-09-09T03:31:28.379Z,91.90
2018-09-09T03:33:56.839Z,91.63
2018-09-09T03:36:25.822Z,91.57
2018-09-09T03:38:54.243Z,91.32
2018-09-09T03:41:22.658Z,91.83
2018-09-09T03:43:51.295Z,91.03
2018-09-09T03:46:19.839Z,92.84
2018-09-09T03:48:48.255Z,91.94
2018-09-09T03:51:17.314Z,91.52
2018-09-09T03:53:45.819Z,91.98
2018-09-09T03:56:14.294Z,90.91
2018-09-09T03:58:42.708Z,90.50
2018-09-09T04:01:11.238Z,90.46
2018-09-09T04:03:39.678Z,90.44
2018-09-09T04:06:08.251Z,90.48
2018-09-09T04:08:36.675Z,90.56
2018-09-09T04:11:08.884Z,90.49
2018-09-09T04:13:38.515Z,90.21
2018-09-09T04:16:07.523Z,90.11
2018-09-09T04:18:36.204Z,91.75
2018-09-09T04:21:04.639Z,92.36
2018-09-09T04:23:33.023Z,91.95
2018-09-09T04:26:01.739Z,91.13
2018-09-09T04:28:30.198Z,90.95
2018-09-09T04:30:58.746Z,90.58
2018-09-09T04:33:27.328Z,90.93
2018-09-09T04:35:55.872Z,91.46
2018-09-09T04:38:24.419Z,92.33
2018-09-09T04:40:52.883Z,93.47
2018-09-09T04:43:21.324Z,92.73
2018-09-09T04:45:49.767Z,92.46
2018-09-09T04:48:18.250Z,93.64
2018-09-09T04:50:46.639Z,94.60
2018-09-09T04:53:15.103Z,94.68
2018-09-09T04:55:43.531Z,95.57
2018-09-09T04:58:11.939Z,93.97
2018-09-09T05:00:40.403Z,94.10
2018-09-09T05:03:08.827Z,93.29
2018-09-09T05:05:37.228Z,92.30
2018-09-09T05:08:05.872Z,93.52
2018-09-09T05:10:34.375Z,92.72
2018-09-09T05:13:02.880Z,93.84
2018-09-09T05:15:31.346Z,93.50
2018-09-09T05:18:00.011Z,94.90
2018-09-09T05:20:28.518Z,94.45
2018-09-09T05:22:57.027Z,94.89
2018-09-09T05:25:25.703Z,93.37
2018-09-09T05:27:54.143Z,93.90
2018-09-09T05:30:22.631Z,93.64
2018-09-09T05:32:51.295Z,92.95
2018-09-09T05:35:19.867Z,92.07
2018-09-09T05:37:48.269Z,91.35
2018-09-09T05:40:16.810Z,91.62
2018-09-09T05:42:45.227Z,91.08
2018-09-09T05:45:13.728Z,91.58
2018-09-09T05:47:42.274Z,91.38
2018-09-09T05:50:10.781Z,91.47
2018-09-09T05:52:39.283Z,91.33
2018-09-09T05:55:07.791Z,91.17
2018-09-09T05:57:36.268Z,90.06
2018-09-09T06:00:04.818Z,89.95
2018-09-09T06:02:33.308Z,89.68
2018-09-09T06:05:01.848Z,88.67
2018-09-09T06:07:30.338Z,88.53
2018-09-09T06:09:59.106Z,87.57
2018-09-09T06:12:28.153Z,86.66
2018-09-09T06:14:56.783Z,85.93
2018-09-09T06:17:25.242Z,87.66
2018-09-09T06:19:53.831Z,89.32
2018-09-09T06:22:22.396Z,90.16
2018-09-09T06:24:51.094Z,90.26
2018-09-09T06:27:19.655Z,90.81
2018-09-09T06:29:48.114Z,89.56
2018-09-09T06:32:16.895Z,88.83
2018-09-09T06:34:45.323Z,87.47
2018-09-09T06:37:13.832Z,87.84
2018-09-09T06:39:42.525Z,87.38
2018-09-09T06:42:10.943Z,87.38
2018-09-09T06:44:39.623Z,86.81
2018-09-09T06:47:08.126Z,86.12
2018-09-09T06:49:36.711Z,87.45
2018-09-09T06:52:05.306Z,86.36
2018-09-09T06:54:33.942Z,86.60
2018-09-09T06:57:02.422Z,87.65
2018-09-09T06:59:30.873Z,87.11
2018-09-09T07:01:59.387Z,87.38
2018-09-09T07:04:27.879Z,84.98
2018-09-09T07:06:56.363Z,84.56
2018-09-09T07:09:25.100Z,84.18
2018-09-09T07:11:53.599Z,83.75
2018-09-09T07:14:22.240Z,83.75
2018-09-09T07:16:50.918Z,83.12
2018-09-09T07:19:19.422Z,82.49
2018-09-09T07:21:47.961Z,81.18
2018-09-09T07:24:16.582Z,82.20
2018-09-09T07:26:45.002Z,80.39
2018-09-09T07:29:13.412Z,80.80
2018-09-09T07:31:42.188Z,80.49
2018-09-09T07:34:10.769Z,80.45
2018-09-09T07:36:39.295Z,80.85
2018-09-09T07:39:08.179Z,80.33
2018-09-09T07:41:36.654Z,79.99
2018-09-09T07:44:05.208Z,77.00
2018-09-09T07:46:34.016Z,77.79
2018-09-09T07:49:02.591Z,77.70
2018-09-09T07:51:31.007Z,77.19
2018-09-09T07:53:59.539Z,76.19
2018-09-09T07:56:27.980Z,75.70
2018-09-09T07:58:56.443Z,76.02
2018-09-09T08:01:25.134Z,75.62
2018-09-09T08:03:53.643Z,75.47
2018-09-09T08:06:22.166Z,74.87
2018-09-09T08:08:50.758Z,73.67
2018-09-09T08:11:19.223Z,72.33
2018-09-09T08:13:47.638Z,73.90
2018-09-09T08:16:16.155Z,72.53
2018-09-09T08:18:44.636Z,73.94
2018-09-09T08:21:13.141Z,72.16
2018-09-09T08:23:42.155Z,72.32
2018-09-09T08:26:10.623Z,70.30
2018-09-09T08:28:39.138Z,71.52
2018-09-09T08:31:07.762Z,69.85
2018-09-09T08:33:36.432Z,70.57
2018-09-09T08:36:04.928Z,69.81
2018-09-09T08:38:33.439Z,69.70
2018-09-09T08:41:01.996Z,69.36
2018-09-09T08:43:30.407Z,68.77
2018-09-09T08:45:58.920Z,68.97
2018-09-09T08:48:27.487Z,67.61
2018-09-09T08:50:55.955Z,67.81
2018-09-09T08:53:24.635Z,65.96
2018-09-09T08:55:53.271Z,65.70
2018-09-09T08:58:23.472Z,64.39
2018-09-09T09:00:52.662Z,64.05
2018-09-09T09:03:21.131Z,63.14
2018-09-09T09:05:49.672Z,61.48
2018-09-09T09:08:18.471Z,62.21
2018-09-09T09:10:47.138Z,61.23
2018-09-09T09:13:15.563Z,61.39
2018-09-09T09:15:44.027Z,61.38
2018-09-09T09:18:12.566Z,61.49
2018-09-09T09:20:41.199Z,60.85
2018-09-09T09:23:09.831Z,61.18
2018-09-09T09:25:42.442Z,60.21
2018-09-09T09:28:11.141Z,58.97
2018-09-09T09:30:39.702Z,57.99
2018-09-09T09:33:08.154Z,58.34
2018-09-09T09:35:42.091Z,57.87
2018-09-09T09:38:10.603Z,56.57
2018-09-09T09:40:39.038Z,56.92
2018-09-09T09:43:07.572Z,57.95
2018-09-09T09:45:35.983Z,58.64
2018-09-09T09:48:04.457Z,56.46
2018-09-09T09:50:33.283Z,55.90
2018-09-09T09:53:01.982Z,52.37
2018-09-09T09:55:30.463Z,53.80
2018-09-09T09:57:59.820Z,53.31
2018-09-09T10:00:33.552Z,53.21
2018-09-09T10:03:02.598Z,52.99
2018-09-09T10:05:31.366Z,53.75
2018-09-09T10:07:59.928Z,50.19
2018-09-09T10:10:28.523Z,50.78
2018-09-09T10:12:57.059Z,52.48
2018-09-09T10:15:26.715Z,48.66
2018-09-09T10:17:55.427Z,50.50
2018-09-09T10:20:23.859Z,51.17
2018-09-09T10:22:52.350Z,48.71
2018-09-09T10:25:21.223Z,49.65
2018-09-09T10:27:49.657Z,47.82
2018-09-09T10:30:18.096Z,45.36
2018-09-09T10:32:46.691Z,46.40
2018-09-09T10:35:15.292Z,44.92
2018-09-09T10:37:44.137Z,45.54
2018-09-09T10:40:13.135Z,44.88
2018-09-09T10:42:41.603Z,44.99
2018-09-09T10:45:10.036Z,45.77
2018-09-09T10:47:38.603Z,45.59
2018-09-09T10:50:07.678Z,48.72
2018-09-09T10:52:36.255Z,47.04
2018-09-09T10:55:05.046Z,47.09
2018-09-09T10:57:33.561Z,45.56
2018-09-09T11:00:02.120Z,45.73
2018-09-09T11:02:30.875Z,44.31
2018-09-09T11:04:59.435Z,41.66
2018-09-09T11:07:28.055Z,42.50
2018-09-09T11:09:56.727Z,43.17
2018-09-09T11:12:30.071Z,42.39
2018-09-09T11:15:00.004Z,43.64
2018-09-09T11:17:29.313Z,43.82
2018-09-09T11:19:58.191Z,45.36
2018-09-09T11:22:27.696Z,43.11
2018-09-09T11:24:56.192Z,42.60
2018-09-09T11:27:25.217Z,40.18
2018-09-09T11:29:53.896Z,40.75
2018-09-09T11:32:22.403Z,40.50
2018-09-09T11:34:51.426Z,39.37
2018-09-09T11:37:19.897Z,40.19
2018-09-09T11:39:52.883Z,39.56
2018-09-09T11:42:21.734Z,39.85
2018-09-09T11:44:50.215Z,39.52
2018-09-09T11:47:18.778Z,39.86
2018-09-09T11:49:47.330Z,39.67
2018-09-09T11:52:15.900Z,39.60
2018-09-09T11:54:44.438Z,39.02
2018-09-09T11:57:13.210Z,38.80
2018-09-09T11:59:41.757Z,38.46
2018-09-09T12:02:10.308Z,39.66
2018-09-09T12:04:38.758Z,38.91
2018-09-09T12:07:07.331Z,40.02
2018-09-09T12:09:36.051Z,39.07
2018-09-09T12:12:04.896Z,37.72
2018-09-09T12:14:33.306Z,38.53
2018-09-09T12:17:07.787Z,39.97
2018-09-09T12:19:36.199Z,38.29
2018-09-09T12:22:04.869Z,39.43
2018-09-09T12:24:33.901Z,39.75
2018-09-09T12:27:02.403Z,39.23
2018-09-09T12:29:31.512Z,36.98
2018-09-09T12:32:00.424Z,38.83
2018-09-09T12:34:30.160Z,38.33
2018-09-09T12:36:58.593Z,39.17
2018-09-09T12:39:27.696Z,38.49
2018-09-09T12:41:57.148Z,38.11
2018-09-09T12:44:31.033Z,38.61
2018-09-09T12:47:04.892Z,39.28
2018-09-09T12:49:33.598Z,39.17
2018-09-09T12:52:02.391Z,39.60
2018-09-09T12:54:31.071Z,39.67
2018-09-09T12:56:59.822Z,38.47
2018-09-09T12:59:28.276Z,38.56
2018-09-09T13:01:56.871Z,38.14
2018-09-09T13:04:25.490Z,38.35
2018-09-09T13:06:53.919Z,37.59
2018-09-09T13:09:22.555Z,38.04
2018-09-09T13:11:51.232Z,39.03
2018-09-09T13:14:19.706Z,37.25
2018-09-09T13:16:48.211Z,37.43
2018-09-09T13:19:16.696Z,36.57
2018-09-09T13:21:45.126Z,37.54
2018-09-09T13:24:13.566Z,38.19
2018-09-09T13:26:42.344Z,36.40
2018-09-09T13:29:10.978Z,36.82
2018-09-09T13:31:39.900Z,36.75
2018-09-09T13:34:08.648Z,37.42
2018-09-09T13:36:37.083Z,38.44
2018-09-09T13:39:07.435Z,38.79
2018-09-09T13:41:35.935Z,38.37
2018-09-09T13:44:04.647Z,37.26
2018-09-09T13:46:33.120Z,38.07
2018-09-09T13:49:01.867Z,37.54
2018-09-09T13:51:30.285Z,37.29
2018-09-09T13:53:58.695Z,35.97
2018-09-09T13:56:27.367Z,36.13
2018-09-09T13:58:55.934Z,36.55
2018-09-09T14:01:24.388Z,34.90
2018-09-09T14:03:53.119Z,36.21
2018-09-09T14:06:21.870Z,34.93
2018-09-09T14:08:50.267Z,35.77
2018-09-09T14:11:19.052Z,37.34
2018-09-09T14:13:47.587Z,35.74
2018-09-09T14:16:16.062Z,34.21
2018-09-09T14:18:44.725Z,35.29
2018-09-09T14:21:13.259Z,34.31
2018-09-09T14:23:41.731Z,35.86
2018-09-09T14:26:10.306Z,34.66
2018-09-09T14:28:38.934Z,35.84
2018-09-09T14:31:07.475Z,35.48
2018-09-09T14:33:36.049Z,35.77
2018-09-09T14:36:05.780Z,36.69
2018-09-09T14:38:34.160Z,35.21
2018-09-09T14:41:02.740Z,34.92
2018-09-09T14:43:31.175Z,35.79
2018-09-09T14:46:00.982Z,36.41
2018-09-09T14:48:29.379Z,34.13
2018-09-09T14:50:57.808Z,37.20
2018-09-09T14:53:26.363Z,36.63
2018-09-09T14:55:54.943Z,37.48
2018-09-09T14:58:24.787Z,37.04
2018-09-09T15:00:53.318Z,38.15
2018-09-09T15:03:22.699Z,39.06
2018-09-09T15:05:51.190Z,38.57
2018-09-09T15:08:19.780Z,35.33
2018-09-09T15:10:48.595Z,34.41
2018-09-09T15:13:17.767Z,34.83
2018-09-09T15:15:46.271Z,36.00
2018-09-09T15:18:14.819Z,36.31
2018-09-09T15:20:43.398Z,35.50
2018-09-09T15:23:11.847Z,36.69
2018-09-09T15:25:40.351Z,35.84
2018-09-09T15:28:08.866Z,36.51
2018-09-09T15:30:37.355Z,34.91
2018-09-09T15:33:05.997Z,35.50
2018-09-09T15:35:34.524Z,36.54
2018-09-09T15:38:03.036Z,34.74
2018-09-09T15:40:31.532Z,34.68
2018-09-09T15:43:00.003Z,35.50
2018-09-09T15:45:28.519Z,34.27
2018-09-09T15:47:57.075Z,34.45
2018-09-09T15:50:25.495Z,34.15
2018-09-09T15:52:54.042Z,36.22
2018-09-09T15:55:22.612Z,35.79
2018-09-09T15:57:51.132Z,34.91
2018-09-09T16:00:19.629Z,35.81
2018-09-09T16:02:48.246Z,33.37
2018-09-09T16:05:16.659Z,33.28
2018-09-09T16:07:45.139Z,34.35
2018-09-09T16:10:13.600Z,34.49
2018-09-09T16:12:42.301Z,34.41
2018-09-09T16:15:10.701Z,33.08
2018-09-09T16:17:39.291Z,33.91
2018-09-09T16:20:08.487Z,34.22
2018-09-09T16:22:36.927Z,34.42
2018-09-09T16:25:05.465Z,35.54
2018-09-09T16:27:34.052Z,34.75
2018-09-09T16:30:02.474Z,33.49
2018-09-09T16:32:31.170Z,34.56
2018-09-09T16:34:59.600Z,33.52
2018-09-09T16:37:28.087Z,34.50
2018-09-09T16:39:56.633Z,36.64
2018-09-09T16:42:25.095Z,38.37
2018-09-09T16:44:53.624Z,35.28
2018-09-09T16:47:22.191Z,35.43
2018-09-09T16:49:50.718Z,38.02
2018-09-09T16:52:19.197Z,38.00
2018-09-09T16:54:47.946Z,36.84
2018-09-09T16:57:16.363Z,39.64
2018-09-09T16:59:44.879Z,40.55
2018-09-09T17:02:13.683Z,41.45
2018-09-09T17:04:42.160Z,41.88
2018-09-09T17:07:10.659Z,42.94
2018-09-09T17:09:39.335Z,44.01
2018-09-09T17:12:07.864Z,47.10
2018-09-09T17:14:36.270Z,47.21
2018-09-09T17:17:04.995Z,48.45
2018-09-09T17:19:33.447Z,48.40
2018-09-09T17:22:01.941Z,49.97
2018-09-09T17:24:30.594Z,50.25
2018-09-09T17:26:59.156Z,51.24
2018-09-09T17:29:28.280Z,50.99
2018-09-09T17:31:57.043Z,51.84
2018-09-09T17:34:25.507Z,52.01
2018-09-09T17:36:54.015Z,52.11
2018-09-09T17:39:22.719Z,50.78
2018-09-09T17:41:51.318Z,49.81
2018-09-09T17:44:19.831Z,50.61
2018-09-09T17:46:48.348Z,51.04
2018-09-09T17:49:16.809Z,51.43
2018-09-09T17:51:45.304Z,52.88
2018-09-09T17:54:14.085Z,52.54
2018-09-09T17:56:42.943Z,53.03
2018-09-09T17:59:11.485Z,52.72
2018-09-09T18:01:40.247Z,51.07
2018-09-09T18:04:08.730Z,52.88
2018-09-09T18:06:37.295Z,52.94
2018-09-09T18:09:07.983Z,53.35
2018-09-09T18:11:36.835Z,53.61
2018-09-09T18:14:05.566Z,53.75
2018-09-09T18:16:34.392Z,52.65
2018-09-09T18:19:03.038Z,53.05
2018-09-09T18:21:31.551Z,53.96
2018-09-09T18:24:01.009Z,53.63
2018-09-09T18:26:29.516Z,53.96
2018-09-09T18:28:58.019Z,54.43
2018-09-09T18:31:27.050Z,54.73
2018-09-09T18:33:55.572Z,54.12
2018-09-09T18:36:24.036Z,53.81
2018-09-09T18:38:52.632Z,54.00
2018-09-09T18:41:21.152Z,53.83
2018-09-09T18:43:49.787Z,53.84
2018-09-09T18:46:18.366Z,55.26
2018-09-09T18:48:47.464Z,54.69
2018-09-09T18:51:16.846Z,57.07
2018-09-09T18:53:49.731Z,55.78
2018-09-09T18:56:18.400Z,56.78
2018-09-09T18:58:46.940Z,57.63
2018-09-09T19:01:15.622Z,57.62
2018-09-09T19:03:44.484Z,58.78
2018-09-09T19:06:13.046Z,58.26
2018-09-09T19:08:42.109Z,58.82
2018-09-09T19:11:10.632Z,59.69
2018-09-09T19:13:39.210Z,60.26
2018-09-09T19:16:08.362Z,61.64
2018-09-09T19:18:37.823Z,62.58
2018-09-09T19:21:06.334Z,62.69
2018-09-09T19:23:35.294Z,63.06
2018-09-09T19:26:04.160Z,64.31
2018-09-09T19:28:32.991Z,64.82
2018-09-09T19:31:02.061Z,65.15
2018-09-09T19:33:30.856Z,65.97
2018-09-09T19:35:59.755Z,66.71
2018-09-09T19:38:28.358Z,66.41
2018-09-09T19:40:57.010Z,66.51
2018-09-09T19:43:25.558Z,67.68
2018-09-09T19:45:54.792Z,68.98
2018-09-09T19:48:23.507Z,68.88
2018-09-09T19:50:52.119Z,69.61
2018-09-09T19:53:20.908Z,70.27
2018-09-09T19:55:49.371Z,70.78
2018-09-09T19:58:17.904Z,71.26
2018-09-09T20:00:46.520Z,71.96
2018-09-09T20:03:15.049Z,72.87
2018-09-09T20:05:43.533Z,72.42
2018-09-09T20:08:12.183Z,72.25
2018-09-09T20:10:40.720Z,71.09
2018-09-09T20:13:10.107Z,70.50
2018-09-09T20:15:38.950Z,69.77
2018-09-09T20:18:07.875Z,67.65
2018-09-09T20:20:36.427Z,68.92
2018-09-09T20:23:05.090Z,69.41
2018-09-09T20:25:33.652Z,70.06
2018-09-09T20:28:02.124Z,68.50
2018-09-09T20:30:30.657Z,70.62
2018-09-09T20:32:59.248Z,70.68
2018-09-09T20:35:27.762Z,70.49
2018-09-09T20:37:56.302Z,70.58
2018-09-09T20:40:25.767Z,69.92
2018-09-09T20:42:54.260Z,71.30
2018-09-09T20:45:22.976Z,72.32
2018-09-09T20:47:51.583Z,73.62
2018-09-09T20:50:20.047Z,73.95
2018-09-09T20:52:48.578Z,73.29
2018-09-09T20:55:17.099Z,73.20
2018-09-09T20:57:45.514Z,74.58
2018-09-09T21:00:14.155Z,75.13
2018-09-09T21:02:42.622Z,75.45
2018-09-09T21:05:11.190Z,75.71
2018-09-09T21:07:39.923Z,75.26
2018-09-09T21:10:08.454Z,75.41
2018-09-09T21:12:36.891Z,75.03
2018-09-09T21:15:07.211Z,75.39
2018-09-09T21:17:36.226Z,75.91
2018-09-09T21:20:05.032Z,77.88
2018-09-09T21:22:33.771Z,78.58
2018-09-09T21:25:02.627Z,78.92
2018-09-09T21:27:31.071Z,77.97
2018-09-09T21:29:59.689Z,77.62
2018-09-09T21:32:28.115Z,77.04
2018-09-09T21:34:56.594Z,77.21
2018-09-09T21:37:25.042Z,76.97
2018-09-09T21:39:53.582Z,77.29
2018-09-09T21:42:22.022Z,78.71
2018-09-09T21:44:50.591Z,78.42
2018-09-09T21:47:18.999Z,79.46
2018-09-09T21:49:47.474Z,79.87
2018-09-09T21:52:16.207Z,80.70
2018-09-09T21:54:44.747Z,80.73
2018-09-09T21:57:13.251Z,81.01
2018-09-09T21:59:41.886Z,81.90
2018-09-09T22:02:10.318Z,82.64
2018-09-09T22:04:39.250Z,82.90
2018-09-09T22:07:11.970Z,83.11
2018-09-09T22:09:41.867Z,82.59
2018-09-09T22:12:11.198Z,82.18
2018-09-09T22:14:40.110Z,82.25
2018-09-09T22:17:09.338Z,82.17
2018-09-09T22:19:37.775Z,82.16
2018-09-09T22:22:06.246Z,83.10
2018-09-09T22:24:34.740Z,82.73
2018-09-09T22:27:03.429Z,82.46
2018-09-09T22:29:31.851Z,83.32
2018-09-09T22:32:00.274Z,82.69
2018-09-09T22:34:28.810Z,83.30
2018-09-09T22:36:57.322Z,83.61
2018-09-09T22:39:25.715Z,82.43
2018-09-09T22:41:54.385Z,82.29
2018-09-09T22:44:22.897Z,82.30
2018-09-09T22:46:51.470Z,82.16
2018-09-09T22:49:20.170Z,82.28
2018-09-09T22:51:48.682Z,81.72
2018-09-09T22:54:17.175Z,81.61
2018-09-09T22:56:45.726Z,82.04
2018-09-09T22:59:14.250Z,84.04
2018-09-09T23:01:42.766Z,83.60
2018-09-09T23:04:11.434Z,83.70
2018-09-09T23:06:39.863Z,84.18
2018-09-09T23:09:10.438Z,83.45
2018-09-09T23:11:38.903Z,84.16
2018-09-09T23:14:07.634Z,84.56
2018-09-09T23:16:36.371Z,84.73
2018-09-09T23:19:04.928Z,84.17
2018-09-09T23:21:33.378Z,84.84
2018-09-09T23:24:02.059Z,85.45
2018-09-09T23:26:30.458Z,85.69
2018-09-09T23:28:58.964Z,85.52
2018-09-09T23:31:27.562Z,85.83
2018-09-09T23:33:56.176Z,85.82
2018-09-09T23:36:24.750Z,85.76
2018-09-09T23:38:53.514Z,86.18
2018-09-09T23:41:21.966Z,87.27
2018-09-09T23:43:50.378Z,85.86
2018-09-09T23:46:19.028Z,85.65
2018-09-09T23:48:47.539Z,85.51
2018-09-09T23:51:16.005Z,84.65
2018-09-09T23:53:44.714Z,85.80
2018-09-09T23:56:13.106Z,87.27
2018-09-09T23:58:41.595Z,86.52
